Terminal Aerodrome Forecast
Issued by NWS Jacksonville, FL

Home | Current Version | Previous Version | Text Only | Print | Product List | Glossary On
Versions: 1 2 3 4 5 6 7 8 9 10 11 12 13 14 15 16
000
FTUS42 KJAX 221800 AAA
TAFSSI
TAF AMD
KSSI 221834Z 2219/2318 14006KT P6SM VCTS SCT050CB
     FM222200 15007KT P6SM FEW050
     FM230500 22005KT P6SM FEW050
     FM231200 29005KT P6SM FEW035=

USA.gov is the U.S. government's official web portal to all federal, state and local government web resources and services.